createdAt,value
2018-01-31T01:53:05.432Z,51.50
2018-01-31T01:55:33.005Z,51.60
2018-01-31T01:58:00.621Z,51.50
2018-01-31T02:00:28.963Z,51.50
2018-01-31T02:02:56.551Z,51.40
2018-01-31T02:05:24.147Z,51.50
2018-01-31T02:07:51.724Z,51.60
2018-01-31T02:10:19.320Z,51.60
2018-01-31T02:12:46.897Z,51.50
2018-01-31T02:15:14.523Z,51.50
2018-01-31T02:17:42.114Z,51.50
2018-01-31T02:20:09.704Z,51.60
2018-01-31T02:22:38.050Z,51.50
2018-01-31T02:25:05.638Z,51.50
2018-01-31T02:27:34.005Z,51.60
2018-01-31T02:30:02.369Z,51.60
2018-01-31T02:32:30.783Z,51.60
2018-01-31T02:34:59.599Z,51.60
2018-01-31T02:37:27.178Z,51.60
2018-01-31T02:39:57.798Z,51.60
2018-01-31T02:42:25.364Z,51.60
2018-01-31T02:44:52.971Z,51.60
2018-01-31T02:47:21.330Z,51.80
2018-01-31T02:49:48.909Z,51.60
2018-01-31T02:52:17.258Z,51.60
2018-01-31T02:54:44.833Z,51.50
2018-01-31T02:57:12.429Z,51.50
2018-01-31T02:59:40.778Z,51.50
2018-01-31T03:02:08.400Z,51.50
2018-01-31T03:04:35.968Z,51.50
2018-01-31T03:07:03.551Z,51.50
2018-01-31T03:09:31.142Z,51.50
2018-01-31T03:11:59.486Z,51.50
2018-01-31T03:14:27.088Z,51.50
2018-01-31T03:16:54.681Z,51.40
2018-01-31T03:19:22.281Z,51.50
2018-01-31T03:21:49.866Z,51.40
2018-01-31T03:24:18.220Z,51.40
2018-01-31T03:26:45.794Z,51.40
2018-01-31T03:29:14.147Z,51.40
2018-01-31T03:31:41.783Z,51.40
2018-01-31T03:34:09.370Z,51.40
2018-01-31T03:36:36.969Z,51.40
2018-01-31T03:39:05.323Z,51.30
2018-01-31T03:41:32.927Z,51.30
2018-01-31T03:44:00.504Z,51.30
2018-01-31T03:46:28.119Z,51.30
2018-01-31T03:48:56.482Z,51.30
2018-01-31T03:51:24.066Z,51.30
2018-01-31T03:53:52.443Z,51.30
2018-01-31T03:56:20.794Z,51.30
2018-01-31T03:58:48.378Z,51.30
2018-01-31T04:01:16.724Z,51.30
2018-01-31T04:03:44.316Z,51.30
2018-01-31T04:06:12.680Z,51.30
2018-01-31T04:08:40.256Z,51.30
2018-01-31T04:11:08.629Z,51.30
2018-01-31T04:13:36.219Z,51.20
2018-01-31T04:16:03.808Z,51.40
2018-01-31T04:18:31.377Z,51.20
2018-01-31T04:20:58.949Z,51.30
2018-01-31T04:23:26.546Z,51.30
2018-01-31T04:25:54.892Z,51.40
2018-01-31T04:28:22.506Z,51.30
2018-01-31T04:30:50.097Z,51.40
2018-01-31T04:33:17.664Z,51.40
2018-01-31T04:35:45.259Z,51.40
2018-01-31T04:38:13.599Z,51.40
2018-01-31T04:40:41.182Z,51.30
2018-01-31T04:43:08.752Z,51.30
2018-01-31T04:45:36.358Z,51.30
2018-01-31T04:48:03.943Z,51.10
2018-01-31T04:50:31.558Z,51.20
2018-01-31T04:52:59.898Z,51.00
2018-01-31T04:55:27.469Z,51.00
2018-01-31T04:57:55.064Z,50.90
2018-01-31T05:00:22.663Z,50.90
2018-01-31T05:02:50.265Z,52.20
2018-01-31T05:05:18.628Z,52.50
2018-01-31T05:07:46.251Z,51.80
2018-01-31T05:10:13.826Z,52.00
2018-01-31T05:12:41.408Z,52.10
2018-01-31T05:15:08.989Z,52.20
2018-01-31T05:17:37.339Z,52.40
2018-01-31T05:20:04.947Z,52.40
2018-01-31T05:22:33.296Z,52.40
2018-01-31T05:25:00.914Z,52.40
2018-01-31T05:27:28.511Z,52.50
2018-01-31T05:29:56.110Z,52.50
2018-01-31T05:32:23.702Z,52.50
2018-01-31T05:34:51.295Z,52.40
2018-01-31T05:37:18.898Z,52.50
2018-01-31T05:39:46.482Z,52.40
2018-01-31T05:42:14.100Z,52.30
2018-01-31T05:44:42.465Z,52.30
2018-01-31T05:47:10.059Z,52.20
2018-01-31T05:49:37.653Z,52.30
2018-01-31T05:52:05.245Z,52.30
2018-01-31T05:54:32.844Z,52.30
2018-01-31T05:57:00.441Z,52.30
2018-01-31T05:59:28.049Z,52.30
2018-01-31T06:01:56.470Z,52.60
2018-01-31T06:04:24.058Z,52.60
2018-01-31T06:06:51.655Z,52.90
2018-01-31T06:09:27.907Z,53.10
2018-01-31T06:11:57.082Z,53.10
2018-01-31T06:14:24.701Z,53.10
2018-01-31T06:16:52.357Z,53.10
2018-01-31T06:19:19.934Z,53.20
2018-01-31T06:21:47.511Z,53.20
2018-01-31T06:24:15.100Z,53.30
2018-01-31T06:26:42.693Z,53.50
2018-01-31T06:29:10.293Z,53.80
2018-01-31T06:31:37.873Z,53.80
2018-01-31T06:34:05.512Z,53.80
2018-01-31T06:36:38.323Z,53.80
2018-01-31T06:39:05.929Z,54.50
2018-01-31T06:41:33.523Z,54.30
2018-01-31T06:44:01.112Z,54.50
2018-01-31T06:46:28.698Z,54.50
2018-01-31T06:48:57.059Z,54.70
2018-01-31T06:51:24.657Z,54.60
2018-01-31T06:53:52.247Z,55.20
2018-01-31T06:56:19.852Z,54.70
2018-01-31T06:58:48.203Z,54.90
2018-01-31T07:01:15.798Z,54.90
2018-01-31T07:03:44.136Z,54.50
2018-01-31T07:06:11.708Z,54.50
2018-01-31T07:08:39.325Z,54.70
2018-01-31T07:11:06.914Z,54.40
2018-01-31T07:13:34.511Z,54.40
2018-01-31T07:16:02.851Z,55.00
2018-01-31T07:18:30.421Z,54.40
2018-01-31T07:20:57.993Z,54.10
2018-01-31T07:23:25.565Z,54.20
2018-01-31T07:25:53.140Z,53.70
2018-01-31T07:28:21.473Z,53.60
2018-01-31T07:30:49.065Z,53.60
2018-01-31T07:33:16.654Z,53.60
2018-01-31T07:35:44.268Z,53.80
2018-01-31T07:38:11.793Z,53.50
2018-01-31T07:40:39.311Z,53.10
2018-01-31T07:43:07.615Z,52.50
2018-01-31T07:45:35.139Z,52.50
2018-01-31T07:48:02.707Z,52.20
2018-01-31T07:50:31.009Z,53.50
2018-01-31T07:52:58.558Z,53.40
2018-01-31T07:55:27.868Z,52.60
2018-01-31T07:57:55.407Z,52.60
2018-01-31T08:00:23.698Z,52.50
2018-01-31T08:02:52.146Z,52.50
2018-01-31T08:05:19.697Z,52.50
2018-01-31T08:07:47.232Z,52.60
2018-01-31T08:10:14.793Z,52.60
2018-01-31T08:12:43.091Z,52.50
2018-01-31T08:15:10.627Z,52.40
2018-01-31T08:17:38.152Z,52.30
2018-01-31T08:20:06.439Z,52.20
2018-01-31T08:22:34.014Z,52.20
2018-01-31T08:25:01.539Z,52.10
2018-01-31T08:27:29.864Z,51.90
2018-01-31T08:29:57.393Z,51.90
2018-01-31T08:32:27.240Z,51.70
2018-01-31T08:34:54.970Z,51.70
2018-01-31T08:37:23.266Z,51.50
2018-01-31T08:39:50.819Z,51.50
2018-01-31T08:42:18.346Z,51.40
2018-01-31T08:44:45.914Z,51.30
2018-01-31T08:47:14.208Z,51.20
2018-01-31T08:49:42.509Z,51.00
2018-01-31T08:52:10.042Z,51.00
2018-01-31T08:54:38.330Z,51.00
2018-01-31T08:57:05.883Z,50.90
2018-01-31T08:59:33.426Z,50.90
2018-01-31T09:02:01.744Z,50.80
2018-01-31T09:04:29.279Z,50.80
2018-01-31T09:06:56.824Z,50.70
2018-01-31T09:09:25.123Z,50.60
2018-01-31T09:11:52.646Z,50.50
2018-01-31T09:14:20.199Z,50.50
2018-01-31T09:16:47.731Z,50.40
2018-01-31T09:19:15.278Z,50.40
2018-01-31T09:21:42.805Z,50.40
2018-01-31T09:24:11.101Z,50.50
2018-01-31T09:26:38.625Z,50.50
2018-01-31T09:29:06.153Z,50.50
2018-01-31T09:31:33.708Z,50.60
2018-01-31T09:34:01.290Z,50.60
2018-01-31T09:36:28.812Z,50.60
2018-01-31T09:38:56.355Z,50.60
2018-01-31T09:41:23.886Z,50.60
2018-01-31T09:43:51.415Z,50.60
2018-01-31T09:46:18.945Z,50.90
2018-01-31T09:48:46.502Z,50.60
2018-01-31T09:51:14.031Z,50.60
2018-01-31T09:53:42.358Z,50.50
2018-01-31T09:56:09.898Z,50.50
2018-01-31T09:58:37.430Z,50.50
2018-01-31T10:01:05.722Z,50.20
2018-01-31T10:03:34.027Z,50.00
2018-01-31T10:06:01.563Z,50.00
2018-01-31T10:08:29.096Z,49.90
2018-01-31T10:10:56.672Z,49.90
2018-01-31T10:13:24.958Z,50.20
2018-01-31T10:15:53.257Z,50.20
2018-01-31T10:18:20.787Z,50.20
2018-01-31T10:20:49.082Z,50.30
2018-01-31T10:23:16.611Z,50.30
2018-01-31T10:25:44.911Z,50.40
2018-01-31T10:28:13.236Z,50.40
2018-01-31T10:30:40.755Z,50.40
2018-01-31T10:33:08.349Z,50.40
2018-01-31T10:35:35.877Z,50.40
2018-01-31T10:38:04.450Z,50.40
2018-01-31T10:40:32.739Z,50.50
2018-01-31T10:43:00.307Z,50.50
2018-01-31T10:45:27.818Z,50.70
2018-01-31T10:47:56.981Z,50.70
2018-01-31T10:50:24.517Z,50.70
2018-01-31T10:52:52.050Z,50.70
2018-01-31T10:57:47.928Z,50.70
2018-01-31T11:03:08.174Z,50.80
2018-01-31T11:05:35.710Z,50.80
2018-01-31T11:08:03.248Z,50.80
2018-01-31T11:10:30.804Z,50.80
2018-01-31T11:12:58.357Z,50.90
2018-01-31T11:15:38.646Z,50.90
2018-01-31T11:18:06.194Z,50.80
2018-01-31T11:20:33.762Z,50.80
2018-01-31T11:23:01.304Z,50.70
2018-01-31T11:25:28.858Z,50.70
2018-01-31T11:27:56.390Z,50.80
2018-01-31T11:30:24.702Z,51.00
2018-01-31T11:32:52.231Z,50.50
2018-01-31T11:35:21.165Z,50.40
2018-01-31T11:37:48.728Z,50.40
2018-01-31T11:40:16.254Z,50.40
2018-01-31T11:42:44.539Z,50.40
2018-01-31T11:45:12.832Z,50.20
2018-01-31T11:47:40.363Z,50.20
2018-01-31T11:50:08.657Z,50.10
2018-01-31T11:52:37.278Z,50.10
2018-01-31T11:55:04.813Z,50.10
2018-01-31T11:57:32.355Z,50.00
2018-01-31T12:00:00.686Z,49.90
2018-01-31T12:02:28.231Z,49.90
2018-01-31T12:04:56.750Z,49.80
2018-01-31T12:07:24.280Z,49.70
2018-01-31T12:09:51.813Z,49.80
2018-01-31T12:12:31.373Z,49.90
2018-01-31T12:15:11.699Z,50.00
2018-01-31T12:17:39.250Z,50.00
2018-01-31T12:20:29.079Z,50.00
2018-01-31T12:23:11.550Z,50.00
2018-01-31T12:25:52.451Z,49.90
2018-01-31T12:28:31.783Z,49.90
2018-01-31T12:34:32.623Z,49.50
2018-01-31T12:37:11.991Z,49.60
2018-01-31T12:39:39.032Z,49.70
2018-01-31T12:42:06.083Z,49.50
2018-01-31T12:44:33.144Z,49.40
2018-01-31T12:47:12.779Z,49.40
2018-01-31T12:49:52.184Z,49.40
2018-01-31T12:52:32.329Z,49.40
2018-01-31T12:55:12.369Z,49.20
2018-01-31T12:57:51.638Z,49.20
2018-01-31T13:00:30.923Z,49.20
2018-01-31T13:06:12.567Z,48.90
2018-01-31T13:08:52.684Z,48.90
2018-01-31T13:11:31.995Z,48.90
2018-01-31T13:17:15.875Z,48.50
2018-01-31T13:19:55.323Z,48.70
2018-01-31T13:25:39.614Z,48.70
2018-01-31T13:28:24.762Z,48.80
2018-01-31T13:31:04.350Z,48.90
2018-01-31T13:33:49.176Z,48.90
2018-01-31T13:39:32.428Z,48.60
2018-01-31T13:42:11.668Z,48.60
2018-01-31T13:44:51.209Z,48.70
2018-01-31T13:50:50.255Z,48.70
2018-01-31T13:56:35.668Z,48.80
2018-01-31T13:59:14.906Z,48.90
2018-01-31T14:01:55.026Z,49.10
2018-01-31T14:04:34.390Z,49.00
2018-01-31T14:07:14.366Z,49.40
2018-01-31T14:09:53.706Z,49.40
2018-01-31T14:12:33.110Z,49.50
2018-01-31T14:15:14.138Z,49.80
2018-01-31T14:17:54.464Z,49.80
2018-01-31T14:20:33.776Z,49.80
2018-01-31T14:23:13.764Z,50.00
2018-01-31T14:25:53.077Z,50.00
2018-01-31T14:28:32.475Z,50.10
2018-01-31T14:31:11.985Z,50.10
2018-01-31T14:33:51.227Z,50.00
2018-01-31T14:36:19.276Z,50.10
2018-01-31T14:38:47.087Z,50.10
2018-01-31T14:41:14.128Z,50.10
2018-01-31T14:43:41.183Z,50.10
2018-01-31T14:46:08.219Z,50.10
2018-01-31T14:48:35.291Z,50.20
2018-01-31T14:51:03.307Z,50.20
2018-01-31T14:53:31.384Z,50.20
2018-01-31T14:55:58.434Z,50.30
2018-01-31T14:58:25.483Z,50.30
2018-01-31T15:00:52.550Z,50.30
2018-01-31T15:03:19.596Z,50.90
2018-01-31T15:05:46.691Z,50.50
2018-01-31T15:08:14.495Z,50.50
2018-01-31T15:10:42.568Z,50.40
2018-01-31T15:13:09.601Z,50.60
2018-01-31T15:15:36.634Z,50.70
2018-01-31T15:18:04.455Z,50.80
2018-01-31T15:20:32.260Z,50.80
2018-01-31T15:23:00.960Z,50.80
2018-01-31T15:25:28.000Z,50.80
2018-01-31T15:27:55.806Z,50.80
2018-01-31T15:30:22.844Z,50.80
2018-01-31T15:32:49.874Z,50.90
2018-01-31T15:35:19.930Z,50.90
2018-01-31T15:37:46.964Z,51.00
2018-01-31T15:40:14.073Z,51.00
2018-01-31T15:42:41.094Z,50.90
2018-01-31T15:45:08.141Z,50.90
2018-01-31T15:47:35.170Z,51.00
2018-01-31T15:50:02.226Z,51.00
2018-01-31T15:52:29.301Z,51.00
2018-01-31T15:54:56.525Z,51.00
2018-01-31T15:57:23.600Z,51.00
2018-01-31T15:59:50.640Z,51.00
2018-01-31T16:02:18.666Z,51.00
2018-01-31T16:04:45.702Z,51.00
2018-01-31T16:07:12.762Z,51.10
2018-01-31T16:09:40.087Z,51.10
2018-01-31T16:12:07.900Z,51.10
2018-01-31T16:14:35.770Z,51.00
2018-01-31T16:17:03.324Z,51.00
2018-01-31T16:19:42.630Z,51.00
2018-01-31T16:22:10.174Z,51.10
2018-01-31T16:24:38.479Z,51.20
2018-01-31T16:27:17.761Z,51.20
2018-01-31T16:29:59.127Z,51.30
2018-01-31T16:32:38.358Z,51.30
2018-01-31T16:35:05.881Z,51.30
2018-01-31T16:37:33.407Z,51.30
2018-01-31T16:40:00.931Z,51.30
2018-01-31T16:42:28.554Z,51.40
2018-01-31T16:44:56.838Z,51.50
2018-01-31T16:47:24.390Z,51.50
2018-01-31T16:49:52.687Z,51.60
2018-01-31T16:52:22.170Z,51.60
2018-01-31T16:54:51.471Z,51.80
2018-01-31T16:57:19.758Z,51.90
2018-01-31T16:59:47.318Z,51.90
2018-01-31T17:02:14.850Z,52.00
2018-01-31T17:04:42.409Z,52.00
2018-01-31T17:07:11.379Z,51.90
2018-01-31T17:09:38.922Z,51.90
2018-01-31T17:12:07.555Z,51.90
2018-01-31T17:14:40.049Z,51.90
2018-01-31T17:17:08.642Z,51.80
2018-01-31T17:19:36.263Z,51.90
2018-01-31T17:22:03.846Z,51.70
2018-01-31T17:24:35.453Z,51.80
2018-01-31T17:27:02.992Z,51.80
2018-01-31T17:29:30.530Z,51.70
2018-01-31T17:31:58.840Z,51.60
2018-01-31T17:34:26.371Z,51.60
2018-01-31T17:36:53.942Z,51.70
2018-01-31T17:39:21.470Z,51.60
2018-01-31T17:41:49.805Z,51.60
2018-01-31T17:44:17.356Z,51.50
2018-01-31T17:46:44.913Z,51.60
2018-01-31T17:49:12.446Z,51.50
2018-01-31T17:51:40.002Z,51.60
2018-01-31T17:54:08.319Z,51.60
2018-01-31T17:56:35.846Z,51.50
2018-01-31T17:59:03.435Z,51.60
2018-01-31T18:01:32.012Z,51.60
2018-01-31T18:03:59.543Z,51.60
2018-01-31T18:06:27.843Z,51.70
2018-01-31T18:08:56.330Z,51.70
2018-01-31T18:11:23.868Z,51.70
2018-01-31T18:13:53.176Z,51.70
2018-01-31T18:16:22.488Z,52.00
2018-01-31T18:18:50.011Z,51.90
2018-01-31T18:21:18.311Z,52.30
2018-01-31T18:23:45.862Z,52.30
2018-01-31T18:26:14.151Z,52.70
2018-01-31T18:28:41.678Z,52.70
2018-01-31T18:31:09.208Z,52.90
2018-01-31T18:33:36.762Z,53.00
2018-01-31T18:36:04.283Z,53.10
2018-01-31T18:38:32.612Z,53.30
2018-01-31T18:41:00.894Z,53.30
2018-01-31T18:43:28.439Z,53.40
2018-01-31T18:45:55.962Z,53.50
2018-01-31T18:48:23.522Z,53.40
2018-01-31T18:50:51.074Z,53.60
2018-01-31T18:53:19.366Z,53.70
2018-01-31T18:55:46.918Z,53.60
2018-01-31T18:58:14.447Z,53.60
2018-01-31T19:00:42.954Z,53.60
2018-01-31T19:03:11.243Z,53.60
2018-01-31T19:05:38.794Z,53.60
2018-01-31T19:08:07.106Z,53.60
2018-01-31T19:10:35.412Z,53.50
2018-01-31T19:13:02.982Z,53.50
2018-01-31T19:15:30.519Z,53.60
2018-01-31T19:17:58.051Z,53.40
2018-01-31T19:20:27.595Z,53.50
2018-01-31T19:22:55.146Z,53.40
2018-01-31T19:25:22.677Z,53.30
2018-01-31T19:27:50.203Z,53.40
2018-01-31T19:30:18.548Z,53.30
2018-01-31T19:32:46.083Z,53.30
2018-01-31T19:35:13.673Z,53.20
2018-01-31T19:37:41.219Z,53.30
2018-01-31T19:40:08.756Z,53.20
2018-01-31T19:42:36.289Z,53.20
2018-01-31T19:45:04.579Z,53.20
2018-01-31T19:47:32.130Z,53.20
2018-01-31T19:50:01.165Z,53.20
2018-01-31T19:52:29.718Z,53.20
2018-01-31T19:54:57.260Z,53.10
2018-01-31T19:57:25.582Z,53.40
2018-01-31T19:59:54.420Z,53.20
2018-01-31T20:02:22.023Z,53.30
2018-01-31T20:04:49.849Z,53.50
2018-01-31T20:07:19.167Z,53.50
2018-01-31T20:09:59.991Z,53.60
2018-01-31T20:12:28.547Z,53.50
2018-01-31T20:15:03.341Z,53.50
2018-01-31T20:17:35.030Z,53.50
2018-01-31T20:20:03.619Z,53.50
2018-01-31T20:22:31.172Z,53.50
2018-01-31T20:24:59.472Z,53.40
2018-01-31T20:27:26.998Z,53.40
2018-01-31T20:29:54.560Z,53.40
2018-01-31T20:32:22.110Z,53.40
2018-01-31T20:34:49.654Z,53.40
2018-01-31T20:37:17.971Z,53.40
2018-01-31T20:39:45.496Z,53.40
2018-01-31T20:42:13.794Z,53.30
2018-01-31T20:44:41.326Z,53.30
2018-01-31T20:47:08.883Z,53.30
2018-01-31T20:49:38.429Z,53.30
2018-01-31T20:52:05.975Z,53.10
2018-01-31T20:54:33.545Z,53.10
2018-01-31T20:57:01.092Z,53.10
2018-01-31T20:59:28.635Z,53.00
2018-01-31T21:01:57.795Z,53.10
2018-01-31T21:04:25.564Z,53.00
2018-01-31T21:07:08.271Z,53.10
2018-01-31T21:09:35.829Z,53.10
2018-01-31T21:12:03.603Z,53.00
2018-01-31T21:14:31.164Z,52.90
2018-01-31T21:16:58.699Z,52.90
2018-01-31T21:19:26.240Z,52.80
2018-01-31T21:21:54.003Z,52.90
2018-01-31T21:24:21.543Z,52.90
2018-01-31T21:26:49.843Z,52.80
2018-01-31T21:29:17.419Z,52.80
2018-01-31T21:31:44.970Z,52.70
2018-01-31T21:34:12.506Z,52.70
2018-01-31T21:36:40.835Z,52.70
2018-01-31T21:39:08.372Z,52.70
2018-01-31T21:41:35.918Z,52.70
2018-01-31T21:44:03.523Z,52.60
2018-01-31T21:46:31.091Z,52.60
2018-01-31T21:48:58.631Z,52.50
2018-01-31T21:51:26.170Z,52.60
2018-01-31T21:53:53.703Z,52.50
2018-01-31T21:56:22.033Z,52.40
2018-01-31T21:58:49.572Z,52.40
2018-01-31T22:01:17.117Z,52.50
2018-01-31T22:03:45.623Z,52.40
2018-01-31T22:06:13.155Z,52.40
2018-01-31T22:08:41.459Z,52.30
2018-01-31T22:11:12.980Z,52.30
2018-01-31T22:13:44.641Z,52.30
2018-01-31T22:16:13.222Z,52.40
2018-01-31T22:18:40.773Z,52.30
2018-01-31T22:21:09.129Z,52.20
2018-01-31T22:23:36.662Z,52.20
2018-01-31T22:26:04.196Z,52.20
2018-01-31T22:28:31.731Z,52.20
2018-01-31T22:31:00.031Z,52.20
2018-01-31T22:33:27.578Z,52.20
2018-01-31T22:35:55.877Z,52.10
2018-01-31T22:38:23.467Z,52.10
2018-01-31T22:40:51.002Z,52.10
2018-01-31T22:43:18.534Z,52.10
2018-01-31T22:45:46.083Z,52.10
2018-01-31T22:48:14.396Z,52.10
2018-01-31T22:50:41.930Z,52.10
2018-01-31T22:53:10.236Z,52.20
2018-01-31T22:55:37.799Z,52.10
2018-01-31T22:58:05.340Z,52.10
2018-01-31T23:00:32.876Z,52.00
2018-01-31T23:03:01.179Z,52.10
2018-01-31T23:05:28.720Z,52.10
2018-01-31T23:07:57.023Z,52.00
2018-01-31T23:10:24.555Z,52.00
2018-01-31T23:12:58.594Z,52.00
2018-01-31T23:15:26.139Z,52.00
2018-01-31T23:17:59.275Z,52.00
2018-01-31T23:20:26.826Z,52.00
2018-01-31T23:22:54.411Z,52.00
2018-01-31T23:25:21.952Z,52.00
2018-01-31T23:27:49.495Z,52.00
2018-01-31T23:30:17.033Z,51.90
2018-01-31T23:32:44.594Z,51.80
2018-01-31T23:35:12.891Z,51.80
2018-01-31T23:37:40.415Z,51.80
2018-01-31T23:40:08.742Z,51.80
2018-01-31T23:42:36.295Z,51.80
2018-01-31T23:45:03.844Z,51.80
2018-01-31T23:47:31.380Z,51.80
2018-01-31T23:49:59.680Z,51.90
2018-01-31T23:52:27.276Z,51.80
2018-01-31T23:54:54.835Z,51.80
2018-01-31T23:57:22.403Z,51.80
2018-01-31T23:59:49.931Z,51.90
